Time;durP1;ratioP1;P1;durP2;ratioP2;P2;SDS_P1;SDS_P2;PMS_P1;PMS_P2;Temp;Humidity;BMP_temperature;BMP_pressure;BME280_temperature;BME280_humidity;BME280_pressure;Samples;Min_cycle;Max_cycle;Signal;HPM_P1;HPM_P2
2023/10/06 00:00:47;;;;;;;7.07;3.15;;;;;;;21.21;45.97;102308.91;4991502;28;20090;-60
2023/10/06 00:03:16;;;;;;;6.43;2.05;;;;;;;21.18;45.75;102315.56;4975560;28;20035;-60
2023/10/06 00:05:41;;;;;;;7.03;2.45;;;;;;;21.19;45.87;102319.13;4991573;28;20487;-60
2023/10/06 00:08:10;;;;;;;3.63;1.67;;;;;;;21.17;46.17;102316.56;4975757;28;20043;-60
2023/10/06 00:10:44;;;;;;;6.68;2.08;;;;;;;21.18;46.49;102315.56;4974628;28;20407;-60
2023/10/06 00:13:18;;;;;;;5.05;2.63;;;;;;;21.18;46.42;102310.09;4975638;28;20039;-60
2023/10/06 00:15:45;;;;;;;5.63;1.80;;;;;;;21.19;45.75;102311.78;4976757;28;20514;-60
2023/10/06 00:18:19;;;;;;;13.45;3.28;;;;;;;21.22;46.42;102316.06;4991645;28;20565;-60
2023/10/06 00:20:48;;;;;;;6.38;3.05;;;;;;;21.21;46.52;102317.97;4990933;28;20039;-60
2023/10/06 00:23:21;;;;;;;9.18;1.98;;;;;;;21.22;46.60;102327.81;4991577;28;20046;-60
2023/10/06 00:25:54;;;;;;;6.45;2.28;;;;;;;21.20;45.72;102313.50;4975188;28;20031;-60
2023/10/06 00:28:26;;;;;;;10.13;2.05;;;;;;;21.23;46.75;102326.81;4975320;28;20035;-61
2023/10/06 00:30:56;;;;;;;8.18;2.20;;;;;;;21.24;45.57;102320.38;4974940;28;20031;-60
2023/10/06 00:33:32;;;;;;;3.00;1.77;;;;;;;21.22;46.29;102319.66;4975385;28;20046;-60
2023/10/06 00:35:58;;;;;;;6.15;1.80;;;;;;;21.22;46.31;102324.25;4975351;28;20041;-60
2023/10/06 00:38:23;;;;;;;5.63;1.90;;;;;;;21.22;46.02;102321.50;4991182;28;20035;-60
2023/10/06 00:40:51;;;;;;;5.30;2.47;;;;;;;21.21;46.14;102326.13;4975320;28;20097;-60
2023/10/06 00:43:36;;;;;;;5.00;1.92;;;;;;;21.21;46.35;102319.81;4991390;28;20035;-60
2023/10/06 00:46:12;;;;;;;6.93;1.65;;;;;;;21.20;46.23;102324.41;4990070;28;20055;-60
2023/10/06 00:48:39;;;;;;;5.70;2.13;;;;;;;21.19;45.56;102321.88;4974386;28;20035;-60
2023/10/06 00:51:19;;;;;;;9.45;2.45;;;;;;;21.20;46.34;102318.09;4974250;28;20030;-60
2023/10/06 00:53:45;;;;;;;5.18;1.50;;;;;;;21.19;46.15;102319.13;4989164;28;20043;-61
2023/10/06 00:56:11;;;;;;;5.03;2.05;;;;;;;21.18;45.96;102315.56;4975632;28;20487;-60
2023/10/06 00:58:41;;;;;;;5.30;1.90;;;;;;;21.17;46.37;102312.97;4989975;28;20043;-61
2023/10/06 01:01:12;;;;;;;8.23;1.88;;;;;;;21.14;45.64;102308.69;4975298;28;20023;-60
2023/10/06 01:03:38;;;;;;;7.13;1.83;;;;;;;21.13;45.37;102309.75;4974113;28;20023;-60
2023/10/06 01:06:12;;;;;;;7.32;2.30;;;;;;;21.10;45.84;102304.63;4974059;28;20027;-61
2023/10/06 01:08:39;;;;;;;9.85;2.10;;;;;;;21.11;46.13;102314.47;4989781;28;20027;-60
2023/10/06 01:11:17;;;;;;;8.48;2.97;;;;;;;21.07;46.06;102296.75;4990069;28;20043;-60
2023/10/06 01:13:52;;;;;;;5.45;2.08;;;;;;;21.04;46.20;102294.31;4974160;28;20030;-60
2023/10/06 01:16:18;;;;;;;9.18;1.92;;;;;;;21.03;46.22;102286.28;4974450;28;20503;-60
2023/10/06 01:18:43;;;;;;;6.43;2.13;;;;;;;21.02;46.19;102287.31;4975071;28;20034;-60
2023/10/06 01:21:17;;;;;;;6.45;1.83;;;;;;;21.00;46.24;102289.34;4975088;28;20046;-60
2023/10/06 01:23:49;;;;;;;3.60;1.65;;;;;;;20.96;45.96;102294.28;4973847;28;20441;-60
2023/10/06 01:26:14;;;;;;;6.43;1.90;;;;;;;20.97;46.09;102290.50;4989520;28;20125;-59
2023/10/06 01:28:45;;;;;;;3.70;1.92;;;;;;;20.96;46.35;102283.38;4989842;28;20117;-61
2023/10/06 01:31:12;;;;;;;8.52;2.03;;;;;;;20.94;46.25;102282.66;4973624;28;20042;-60
2023/10/06 01:33:38;;;;;;;2.22;1.60;;;;;;;20.93;45.97;102278.25;4974525;28;20043;-66
2023/10/06 01:36:13;;;;;;;2.60;1.20;;;;;;;20.90;46.79;102273.13;4991444;28;20540;-62
2023/10/06 01:38:41;;;;;;;6.57;1.90;;;;;;;20.86;46.67;102266.25;4975313;28;20083;-59
2023/10/06 01:41:06;;;;;;;5.05;1.83;;;;;;;20.86;46.07;102277.16;4975613;28;20038;-62
2023/10/06 01:43:33;;;;;;;8.32;2.22;;;;;;;20.86;46.63;102271.72;4974791;28;20031;-60
2023/10/06 01:45:59;;;;;;;12.50;2.22;;;;;;;20.85;46.56;102278.19;4974510;28;20055;-61
2023/10/06 01:48:28;;;;;;;5.00;1.83;;;;;;;20.84;46.09;102277.34;4972850;28;20090;-60
2023/10/06 01:50:55;;;;;;;4.40;2.00;;;;;;;20.79;46.09;102270.66;4988578;28;20565;-60
2023/10/06 01:53:20;;;;;;;7.40;1.77;;;;;;;20.81;46.53;102269.47;4989334;28;20045;-61
2023/10/06 01:55:52;;;;;;;3.95;1.73;;;;;;;20.82;46.20;102270.34;4973227;28;20418;-61
2023/10/06 01:58:17;;;;;;;4.80;1.85;;;;;;;20.81;46.70;102279.53;4972779;28;20035;-60
2023/10/06 02:00:45;;;;;;;4.68;1.95;;;;;;;20.80;46.91;102275.94;4974258;28;20097;-60
2023/10/06 02:03:11;;;;;;;5.95;2.47;;;;;;;20.81;46.29;102274.94;4973135;28;20031;-60
2023/10/06 02:05:39;;;;;;;3.97;1.73;;;;;;;20.82;46.94;102267.63;4989538;28;20042;-60
2023/10/06 02:08:09;;;;;;;9.63;1.52;;;;;;;20.80;46.73;102266.91;4988220;28;20491;-60
2023/10/06 02:10:36;;;;;;;6.78;1.92;;;;;;;20.80;46.20;102266.91;4988654;28;20038;-61
2023/10/06 02:13:04;;;;;;;9.57;3.75;;;;;;;20.79;46.15;102252.47;4988535;28;20037;-60
2023/10/06 02:15:31;;;;;;;7.93;2.15;;;;;;;20.75;46.38;102253.78;4988978;28;20042;-60
2023/10/06 02:17:57;;;;;;;10.73;1.92;;;;;;;20.76;46.37;102260.09;4972896;28;20089;-61
2023/10/06 02:22:52;;;;;;;5.32;1.83;;;;;;;20.73;46.53;102264.00;4974078;28;20043;-60
2023/10/06 02:25:20;;;;;;;6.28;2.20;;;;;;;20.73;46.42;102261.25;4989114;28;20034;-60
2023/10/06 02:27:50;;;;;;;4.40;2.20;;;;;;;20.74;45.95;102256.69;4989036;28;20059;-61
2023/10/06 02:30:24;;;;;;;6.20;2.30;;;;;;;20.74;46.15;102262.94;4988534;28;20035;-60
2023/10/06 02:32:51;;;;;;;3.83;1.67;;;;;;;20.71;46.86;102257.84;4971215;28;20051;-61
2023/10/06 02:35:17;;;;;;;12.20;2.33;;;;;;;20.73;45.85;102260.41;4973960;28;20117;-60
2023/10/06 02:37:45;;;;;;;9.07;2.08;;;;;;;20.72;46.29;102254.09;4972607;28;20494;-60
2023/10/06 02:40:11;;;;;;;5.65;1.77;;;;;;;20.70;46.69;102250.69;4972597;28;20041;-60
2023/10/06 02:42:53;;;;;;;3.95;1.30;;;;;;;20.71;46.69;102252.41;4989002;28;20110;-60
2023/10/06 02:45:21;;;;;;;8.07;2.42;;;;;;;20.70;46.38;102256.13;4972739;28;20085;-60
2023/10/06 02:47:47;;;;;;;4.38;1.73;;;;;;;20.68;46.35;102250.00;4973861;28;20499;-60
2023/10/06 02:50:20;;;;;;;7.95;2.67;;;;;;;20.67;46.73;102250.16;4974034;28;20045;-60
2023/10/06 02:52:46;;;;;;;5.90;1.60;;;;;;;20.64;46.64;102240.44;4987762;28;20555;-60
2023/10/06 02:55:19;;;;;;;7.05;2.10;;;;;;;20.64;47.00;102261.34;4956265;28;20127;-60
2023/10/06 02:57:50;;;;;;;;;;;;;;;20.64;46.01;102261.34;4973185;28;20464;-60
2023/10/06 03:02:56;;;;;;;5.43;1.60;;;;;;;20.62;46.75;102258.81;4976473;28;20041;-60
2023/10/06 03:05:31;;;;;;;4.88;1.88;;;;;;;20.62;46.44;102255.22;4992180;28;20031;-60
2023/10/06 03:07:58;;;;;;;6.45;2.33;;;;;;;20.62;46.55;102266.97;4976639;28;20043;-60
2023/10/06 03:10:27;;;;;;;6.00;1.85;;;;;;;20.62;46.18;102279.72;4992328;28;20392;-60
2023/10/06 03:12:53;;;;;;;7.13;1.75;;;;;;;20.63;46.02;102265.09;4975957;28;20410;-60
2023/10/06 03:15:35;;;;;;;4.70;2.08;;;;;;;20.60;46.22;102258.09;4976323;28;20439;-60
2023/10/06 03:18:03;;;;;;;6.03;2.25;;;;;;;20.57;46.39;102261.16;4990414;28;20039;-60
2023/10/06 03:20:40;;;;;;;6.68;2.00;;;;;;;20.54;46.77;102257.88;4977325;28;20054;-60
2023/10/06 03:23:13;;;;;;;5.85;1.60;;;;;;;20.52;47.05;102263.47;4977270;28;20097;-61
2023/10/06 03:25:39;;;;;;;4.95;2.33;;;;;;;20.51;45.96;102267.22;4975850;28;20122;-60
2023/10/06 03:28:05;;;;;;;5.65;2.05;;;;;;;20.48;46.91;102266.69;4959742;28;20118;-60
2023/10/06 03:30:41;;;;;;;8.32;2.08;;;;;;;20.47;46.43;102270.41;4975795;28;20031;-60
2023/10/06 03:33:12;;;;;;;7.18;1.92;;;;;;;20.45;46.87;102273.31;4975508;28;20065;-60
2023/10/06 03:35:45;;;;;;;8.18;2.35;;;;;;;20.42;46.76;102264.59;4975219;28;20130;-61
2023/10/06 03:38:42;;;;;;;4.93;1.85;;;;;;;20.41;46.38;102265.63;4990657;28;20507;-60
2023/10/06 03:46:09;;;;;;;5.07;1.83;;;;;;;20.39;46.61;102273.06;4989229;28;20096;-60
2023/10/06 03:48:38;;;;;;;5.15;1.75;;;;;;;20.35;46.33;102267.09;4991558;28;20061;-60
2023/10/06 03:51:05;;;;;;;6.15;1.80;;;;;;;20.37;46.90;102264.22;4975459;28;20513;-61
2023/10/06 03:53:31;;;;;;;5.55;1.83;;;;;;;20.33;46.47;102259.09;4991354;28;20454;-60
2023/10/06 03:55:57;;;;;;;5.13;1.50;;;;;;;20.31;46.36;102255.69;4975273;28;20542;-62
2023/10/06 03:58:29;;;;;;;5.70;1.50;;;;;;;20.30;46.42;102250.38;4975403;28;20038;-60
2023/10/06 04:00:55;;;;;;;7.00;2.20;;;;;;;20.30;46.80;102258.53;4991230;28;20090;-64
2023/10/06 04:03:21;;;;;;;6.75;2.05;;;;;;;20.27;46.82;102248.81;4959344;28;20316;-60
2023/10/06 04:05:51;;;;;;;5.43;1.60;;;;;;;20.26;46.90;102252.56;4991567;28;20577;-60
2023/10/06 04:08:22;;;;;;;8.35;1.95;;;;;;;20.29;46.68;102256.84;4974971;28;20515;-60
2023/10/06 04:10:51;;;;;;;6.35;1.77;;;;;;;20.28;46.23;102256.00;4975086;28;20042;-60
2023/10/06 04:13:17;;;;;;;8.80;2.10;;;;;;;20.31;46.79;102252.94;4989876;28;20086;-60
2023/10/06 04:15:48;;;;;;;4.30;1.98;;;;;;;20.30;47.00;102248.50;4991141;28;20039;-60
2023/10/06 04:18:16;;;;;;;6.15;1.98;;;;;;;20.29;47.18;102246.81;4990835;28;20034;-60
2023/10/06 04:20:42;;;;;;;12.13;2.17;;;;;;;20.26;46.57;102238.97;4974924;28;20034;-59
2023/10/06 04:23:08;;;;;;;2.45;1.65;;;;;;;20.26;46.92;102238.97;4991102;28;20037;-61
2023/10/06 04:25:37;;;;;;;6.72;1.95;;;;;;;20.23;46.84;102231.09;4974094;28;20035;-60
2023/10/06 04:28:24;;;;;;;9.07;2.80;;;;;;;20.19;46.40;102220.66;4974898;28;20030;-60
2023/10/06 04:30:50;;;;;;;5.32;2.10;;;;;;;20.16;46.66;102219.09;4958752;28;20038;-61
2023/10/06 04:33:18;;;;;;;6.35;2.25;;;;;;;20.14;46.46;102220.28;4974404;28;20093;-59
2023/10/06 04:35:55;;;;;;;7.57;2.72;;;;;;;20.14;47.12;102220.28;4991037;28;20495;-60
2023/10/06 04:38:21;;;;;;;5.53;2.00;;;;;;;20.09;46.28;102215.31;4989663;28;20499;-60
2023/10/06 04:40:46;;;;;;;9.88;2.13;;;;;;;20.11;46.54;102229.59;4975754;28;20050;-60
2023/10/06 04:43:17;;;;;;;17.73;3.08;;;;;;;20.12;47.08;102219.59;4974411;28;20041;-60
2023/10/06 04:45:47;;;;;;;6.13;1.90;;;;;;;20.14;47.07;102221.13;4973894;28;20069;-61
2023/10/06 04:48:13;;;;;;;6.35;2.50;;;;;;;20.15;46.55;102217.41;4974538;28;20034;-60
2023/10/06 04:50:38;;;;;;;6.93;3.55;;;;;;;20.16;47.09;102219.09;4975692;28;20114;-60
2023/10/06 04:53:06;;;;;;;7.30;2.42;;;;;;;20.19;47.25;102220.66;4974194;28;20018;-61
2023/10/06 04:55:37;;;;;;;10.90;2.08;;;;;;;20.18;46.79;102217.06;4975815;28;20026;-60
2023/10/06 04:58:05;;;;;;;9.07;2.28;;;;;;;20.19;46.92;102221.50;4982826;28;20105;-60
2023/10/06 05:00:33;;;;;;;8.15;2.85;;;;;;;20.18;46.48;102211.63;4974497;28;20026;-60
2023/10/06 05:02:58;;;;;;;4.88;1.90;;;;;;;20.17;46.89;102220.81;4975088;28;20486;-60
2023/10/06 05:05:24;;;;;;;4.57;2.35;;;;;;;20.18;46.45;102230.69;4974797;28;20086;-61
2023/10/06 05:07:51;;;;;;;7.22;1.98;;;;;;;20.19;47.34;102243.28;4990659;28;20483;-61
2023/10/06 05:10:21;;;;;;;10.13;2.90;;;;;;;20.20;46.97;102245.00;4974437;28;20105;-60
2023/10/06 05:12:50;;;;;;;3.75;2.20;;;;;;;20.21;46.97;102240.41;4973865;28;20042;-61
2023/10/06 05:15:40;;;;;;;6.47;2.40;;;;;;;20.21;46.52;102243.97;4987769;28;20047;-61
2023/10/06 05:18:03;;;;;;;8.45;1.92;;;;;;;20.21;47.06;102237.69;4987366;28;20030;-60
2023/10/06 05:20:33;;;;;;;5.15;1.98;;;;;;;20.18;46.39;102230.69;4973193;28;20418;-60
2023/10/06 05:23:09;;;;;;;7.20;1.92;;;;;;;20.18;46.71;102221.69;4973762;28;20098;-60
2023/10/06 05:25:41;;;;;;;5.45;2.15;;;;;;;20.17;46.79;102226.28;4974133;28;20030;-60
2023/10/06 05:28:10;;;;;;;4.57;1.65;;;;;;;20.14;46.69;102221.13;4973920;28;20035;-61
2023/10/06 05:30:37;;;;;;;5.32;2.05;;;;;;;20.11;47.16;102216.00;4988744;28;20049;-61
2023/10/06 05:33:03;;;;;;;6.80;1.75;;;;;;;20.09;46.59;102218.03;4989840;28;20030;-61
2023/10/06 05:35:35;;;;;;;4.88;1.73;;;;;;;20.04;46.43;102209.50;4990130;28;20122;-62
2023/10/06 05:38:03;;;;;;;9.88;2.22;;;;;;;20.04;46.87;102214.09;4989271;28;20407;-62
2023/10/06 05:40:30;;;;;;;11.85;2.80;;;;;;;20.00;47.17;102213.53;4973621;28;20038;-62
2023/10/06 05:42:55;;;;;;;8.45;2.00;;;;;;;20.00;46.86;102213.53;4973601;28;20031;-62
2023/10/06 05:45:21;;;;;;;4.72;1.73;;;;;;;19.97;47.03;102210.25;4989776;28;20054;-63
2023/10/06 05:47:47;;;;;;;8.15;2.75;;;;;;;19.99;47.02;102216.41;4973048;28;20455;-62
2023/10/06 05:50:27;;;;;;;5.20;1.92;;;;;;;19.98;47.25;102215.56;4973221;28;20043;-62
2023/10/06 05:53:04;;;;;;;6.80;2.53;;;;;;;19.98;46.45;102221.00;4988593;28;20034;-62
2023/10/06 05:55:37;;;;;;;7.28;2.70;;;;;;;20.02;46.81;102222.38;4973352;28;20125;-62
2023/10/06 05:58:04;;;;;;;7.88;2.38;;;;;;;20.04;47.00;102217.66;4973551;28;20041;-63
2023/10/06 06:00:31;;;;;;;8.18;2.50;;;;;;;20.06;47.29;102222.94;4973339;28;20038;-62
2023/10/06 06:02:58;;;;;;;11.95;1.77;;;;;;;20.08;46.89;102229.91;4973206;28;20380;-62
2023/10/06 06:05:25;;;;;;;4.10;2.55;;;;;;;20.11;47.37;102221.44;4957400;28;20034;-62
2023/10/06 06:07:51;;;;;;;7.15;2.08;;;;;;;20.11;46.21;102229.59;4973706;28;20062;-62
2023/10/06 06:10:18;;;;;;;7.25;2.20;;;;;;;20.17;46.57;102223.53;4988986;28;20395;-63
2023/10/06 06:12:43;;;;;;;10.95;2.15;;;;;;;20.26;46.36;102224.50;4989250;28;20551;-62
2023/10/06 06:15:11;;;;;;;13.75;2.75;;;;;;;20.36;46.24;102221.66;4974011;28;20049;-62
2023/10/06 06:17:37;;;;;;;5.13;1.80;;;;;;;20.44;46.26;102238.06;4988998;28;20542;-62
2023/10/06 06:20:02;;;;;;;14.95;2.90;;;;;;;20.43;46.52;102233.66;4989031;28;20035;-62
2023/10/06 06:22:29;;;;;;;3.80;1.80;;;;;;;20.42;46.46;102232.78;4972830;28;20462;-63
2023/10/06 06:24:55;;;;;;;4.28;2.05;;;;;;;20.44;46.75;102230.75;4988893;28;20489;-62
2023/10/06 06:27:22;;;;;;;8.15;2.20;;;;;;;20.46;46.38;102233.34;4973951;28;20030;-62
2023/10/06 06:29:49;;;;;;;12.00;3.65;;;;;;;20.51;46.11;102233.69;4972627;28;20022;-62
2023/10/06 06:32:16;;;;;;;6.60;1.65;;;;;;;20.56;46.14;102237.66;4956796;28;20053;-62
2023/10/06 06:34:41;;;;;;;8.07;2.60;;;;;;;20.71;46.49;102237.94;4988765;28;20030;-62
2023/10/06 06:37:09;;;;;;;5.65;1.98;;;;;;;20.85;45.77;102234.63;4976317;28;20026;-62
2023/10/06 06:39:37;;;;;;;9.27;2.03;;;;;;;21.01;45.95;102236.56;4977955;28;20032;-62
2023/10/06 06:42:05;;;;;;;3.85;2.25;;;;;;;21.14;46.38;102236.97;4992733;28;20034;-62
2023/10/06 06:44:31;;;;;;;6.93;2.78;;;;;;;21.32;45.68;102241.34;4976708;28;20035;-61
2023/10/06 06:46:56;;;;;;;10.20;2.80;;;;;;;21.44;45.59;102240.00;4976346;28;20056;-62
2023/10/06 06:49:23;;;;;;;4.10;2.05;;;;;;;21.55;45.80;102236.13;4976490;28;20105;-62
2023/10/06 06:51:48;;;;;;;6.75;2.33;;;;;;;21.60;45.91;102232.91;4976460;28;20038;-62
2023/10/06 06:54:14;;;;;;;6.72;2.60;;;;;;;21.62;45.28;102233.56;4977704;28;20509;-63
2023/10/06 06:56:39;;;;;;;8.00;2.10;;;;;;;21.59;45.99;102236.63;4977658;28;20035;-62
2023/10/06 06:59:05;;;;;;;7.20;2.97;;;;;;;21.61;46.03;102235.44;4992748;28;20061;-63
2023/10/06 07:01:33;;;;;;;10.05;3.45;;;;;;;21.67;45.72;102244.84;4976283;28;20027;-62
2023/10/06 07:04:00;;;;;;;6.60;2.55;;;;;;;21.65;45.21;102241.44;4976165;28;20491;-63
2023/10/06 07:06:26;;;;;;;8.65;2.05;;;;;;;21.67;46.20;102251.16;4991161;28;20042;-63
2023/10/06 07:08:51;;;;;;;3.70;1.70;;;;;;;21.65;45.91;102252.34;4976074;28;20034;-62
2023/10/06 07:11:17;;;;;;;8.15;2.03;;;;;;;21.63;45.78;102251.66;4975950;28;20045;-62
2023/10/06 07:13:42;;;;;;;6.55;1.92;;;;;;;21.66;45.81;102248.59;4977314;28;20038;-62
2023/10/06 07:16:09;;;;;;;8.65;2.00;;;;;;;21.67;45.06;102239.38;4992373;28;20482;-62
2023/10/06 07:18:36;;;;;;;4.80;2.20;;;;;;;21.68;45.21;102233.78;4992177;28;20118;-63
2023/10/06 07:21:07;;;;;;;4.72;2.40;;;;;;;21.86;45.70;102233.66;4976145;28;20034;-63
2023/10/06 07:23:34;;;;;;;11.23;2.13;;;;;;;21.97;45.60;102231.44;4992156;28;20118;-62
2023/10/06 07:26:00;;;;;;;9.32;2.20;;;;;;;22.12;44.51;102238.97;4975903;28;20035;-62
2023/10/06 07:28:27;;;;;;;5.35;2.50;;;;;;;22.21;44.90;102230.63;4992048;28;20045;-62
2023/10/06 07:30:52;;;;;;;6.88;2.33;;;;;;;22.27;44.36;102229.09;4977105;28;20038;-62
2023/10/06 07:33:18;;;;;;;4.35;1.95;;;;;;;22.32;45.05;102232.16;4977031;28;20039;-62
2023/10/06 07:35:45;;;;;;;8.00;2.40;;;;;;;22.36;44.46;102228.88;4992059;28;20038;-62
2023/10/06 07:38:11;;;;;;;6.82;2.00;;;;;;;22.38;44.15;102243.25;4960168;28;20423;-62
2023/10/06 07:40:37;;;;;;;6.25;1.98;;;;;;;22.51;43.92;102240.84;4975628;28;20035;-62
2023/10/06 07:43:05;;;;;;;12.77;2.97;;;;;;;22.67;44.77;102242.72;4975931;28;20498;-63
2023/10/06 07:45:31;;;;;;;5.57;1.83;;;;;;;22.82;44.68;102248.31;4977838;28;20521;-64
2023/10/06 07:47:58;;;;;;;5.53;1.90;;;;;;;23.03;44.13;102243.16;4960127;28;20101;-63
2023/10/06 07:50:26;;;;;;;7.15;2.65;;;;;;;23.26;43.67;102257.75;4977648;28;20427;-62
2023/10/06 07:52:52;;;;;;;8.65;2.35;;;;;;;23.50;43.29;102246.75;4992338;28;20039;-64
2023/10/06 07:55:21;;;;;;;6.80;1.80;;;;;;;23.70;43.58;102239.75;4991671;28;20090;-60
2023/10/06 07:57:47;;;;;;;13.02;2.67;;;;;;;23.99;42.86;102243.69;4991263;28;20062;-61
2023/10/06 08:00:38;;;;;;;12.43;3.70;;;;;;;24.24;42.70;102237.00;4976584;28;20027;-61
2023/10/06 08:03:04;;;;;;;6.97;2.20;;;;;;;24.55;42.16;102237.75;4988510;28;20035;-61
2023/10/06 08:05:29;;;;;;;10.48;1.95;;;;;;;24.76;42.52;102231.56;4991288;28;20046;-62
2023/10/06 08:07:55;;;;;;;6.63;2.42;;;;;;;24.92;42.41;102231.41;4991209;28;20042;-60
2023/10/06 08:10:20;;;;;;;5.13;2.03;;;;;;;25.15;41.95;102232.16;4976483;28;20554;-61
2023/10/06 08:12:50;;;;;;;9.43;2.60;;;;;;;25.34;41.60;102234.31;4958816;28;20039;-61
2023/10/06 08:15:21;;;;;;;6.30;2.10;;;;;;;25.55;41.50;102241.75;4987867;28;20050;-60
2023/10/06 08:17:47;;;;;;;6.38;2.38;;;;;;;25.71;41.31;102241.53;4990568;28;20530;-60
2023/10/06 08:20:15;;;;;;;7.90;2.42;;;;;;;25.85;41.30;102232.38;4974899;28;20058;-61
2023/10/06 08:22:41;;;;;;;9.77;1.90;;;;;;;26.02;41.07;102242.06;4974819;28;20122;-61
2023/10/06 08:25:06;;;;;;;8.13;2.90;;;;;;;26.16;41.16;102250.50;4958705;28;20031;-61
2023/10/06 08:27:35;;;;;;;6.90;2.10;;;;;;;26.30;40.48;102249.59;4975950;28;20035;-61
2023/10/06 08:30:01;;;;;;;9.48;2.22;;;;;;;26.50;40.54;102251.44;4991034;28;20030;-61
2023/10/06 08:32:26;;;;;;;8.30;2.10;;;;;;;26.68;40.75;102245.44;4991095;28;20102;-61
2023/10/06 08:34:53;;;;;;;7.95;2.25;;;;;;;26.89;40.33;102244.56;4974547;28;20037;-61
2023/10/06 08:37:19;;;;;;;5.70;2.65;;;;;;;27.15;39.31;102240.06;4990899;28;20035;-61
2023/10/06 08:39:46;;;;;;;10.60;2.45;;;;;;;27.42;39.64;102231.94;4974526;28;20039;-61
2023/10/06 08:42:14;;;;;;;7.28;2.30;;;;;;;27.63;39.17;102227.19;4975650;28;20198;-61
2023/10/06 08:44:39;;;;;;;8.70;2.20;;;;;;;27.87;38.96;102225.75;4973967;28;20039;-61
2023/10/06 08:47:06;;;;;;;8.32;2.72;;;;;;;27.96;38.97;102232.75;4990298;28;20110;-61
2023/10/06 08:49:32;;;;;;;8.38;2.00;;;;;;;28.11;38.21;102236.19;4990562;28;20046;-62
2023/10/06 08:51:59;;;;;;;6.35;2.33;;;;;;;28.28;38.63;102231.97;4974264;28;20093;-63
2023/10/06 08:54:24;;;;;;;5.50;2.22;;;;;;;28.51;38.79;102247.22;4974076;28;20093;-61
2023/10/06 08:56:50;;;;;;;5.35;1.90;;;;;;;28.64;37.43;102242.63;4974194;28;20031;-61
2023/10/06 08:59:16;;;;;;;8.25;2.22;;;;;;;28.82;37.69;102233.66;4973516;28;20058;-61
2023/10/06 09:01:43;;;;;;;8.18;2.53;;;;;;;28.88;38.03;102241.06;4990092;28;20107;-61
2023/10/06 09:04:09;;;;;;;7.03;2.15;;;;;;;29.07;38.00;102240.19;4974159;28;20057;-61
2023/10/06 09:06:37;;;;;;;7.03;3.13;;;;;;;29.26;37.04;102231.00;4974207;28;20046;-63
2023/10/06 09:09:05;;;;;;;5.88;1.52;;;;;;;29.50;37.16;102242.41;4989903;28;20031;-63
2023/10/06 09:11:38;;;;;;;15.77;2.15;;;;;;;29.60;36.79;102240.84;4989863;28;20070;-63
2023/10/06 09:14:11;;;;;;;6.15;2.05;;;;;;;29.74;36.22;102238.84;4973666;28;20399;-64
2023/10/06 09:16:49;;;;;;;9.30;2.05;;;;;;;30.02;36.08;102247.66;4989918;28;20023;-62
2023/10/06 09:19:15;;;;;;;6.18;1.70;;;;;;;30.32;35.92;102245.94;4990075;28;20043;-63
2023/10/06 09:22:02;;;;;;;5.47;2.00;;;;;;;30.81;35.11;102247.03;4975211;28;20506;-63
2023/10/06 09:24:29;;;;;;;5.60;1.83;;;;;;;31.52;34.22;102241.78;4989911;28;20046;-63
2023/10/06 09:26:56;;;;;;;6.65;2.60;;;;;;;31.45;34.43;102239.06;4989740;28;20499;-64
2023/10/06 09:29:36;;;;;;;6.75;2.50;;;;;;;31.33;34.29;102237.28;4973482;28;20074;-64
2023/10/06 09:32:11;;;;;;;7.53;2.35;;;;;;;31.40;34.91;102235.28;4973586;28;20035;-64
2023/10/06 09:34:36;;;;;;;6.93;1.75;;;;;;;31.42;34.29;102233.13;4973385;28;20506;-62
2023/10/06 09:37:18;;;;;;;4.88;1.52;;;;;;;31.73;34.00;102221.03;4974716;28;20038;-63
2023/10/06 09:39:45;;;;;;;7.68;1.83;;;;;;;32.15;33.71;102234.69;4989593;28;20035;-64
2023/10/06 09:42:11;;;;;;;10.30;1.95;;;;;;;32.25;33.31;102218.28;4989517;28;20193;-63
2023/10/06 09:44:38;;;;;;;6.47;2.17;;;;;;;32.17;33.63;102209.47;4973346;28;20034;-63
2023/10/06 09:47:08;;;;;;;7.85;1.88;;;;;;;32.06;33.53;102210.31;4989563;28;20039;-63
2023/10/06 09:49:37;;;;;;;6.63;1.80;;;;;;;31.79;34.14;102212.63;4973464;28;20071;-63
2023/10/06 09:52:02;;;;;;;2.75;1.50;;;;;;;31.48;34.17;102222.00;4989277;28;20031;-64
2023/10/06 09:54:29;;;;;;;7.38;2.58;;;;;;;31.36;34.26;102217.44;4989392;28;20042;-62
2023/10/06 09:56:55;;;;;;;8.27;1.98;;;;;;;31.25;33.93;102216.28;4973093;28;20045;-64
2023/10/06 09:59:22;;;;;;;9.30;2.20;;;;;;;31.15;34.26;102216.00;4989528;28;20438;-64
2023/10/06 10:01:48;;;;;;;11.40;2.25;;;;;;;31.14;34.00;102212.38;4989238;28;20038;-63
2023/10/06 10:04:18;;;;;;;7.25;2.03;;;;;;;31.47;33.62;102220.31;4989165;28;20046;-63
2023/10/06 10:06:44;;;;;;;3.95;2.08;;;;;;;31.80;33.22;102211.50;4988952;28;20031;-63
2023/10/06 10:09:16;;;;;;;5.32;2.03;;;;;;;32.31;32.60;102212.88;4972741;28;20133;-64
2023/10/06 10:12:05;;;;;;;;;;;;;;;32.74;32.31;102207.88;4988657;28;20093;-63
2023/10/06 10:14:39;;;;;;;5.72;2.15;;;;;;;33.13;32.73;102195.16;4949174;28;19969;-63
2023/10/06 10:17:29;;;;;;;5.20;1.85;;;;;;;33.39;31.54;102197.38;4972828;28;20034;-61
2023/10/06 10:19:55;;;;;;;4.60;1.83;;;;;;;33.44;31.41;102194.69;4972877;28;20114;-63
2023/10/06 10:22:21;;;;;;;7.18;2.08;;;;;;;33.20;32.78;102187.50;4988970;28;20062;-62
2023/10/06 10:24:47;;;;;;;7.10;2.03;;;;;;;32.80;32.03;102182.72;4967053;28;20538;-63
2023/10/06 10:27:14;;;;;;;4.85;1.85;;;;;;;32.58;32.76;102194.72;4971869;28;20035;-63
2023/10/06 10:29:41;;;;;;;4.25;2.10;;;;;;;32.45;31.87;102184.66;4972691;28;20073;-61
2023/10/06 10:32:13;;;;;;;6.90;1.88;;;;;;;32.41;32.43;102197.34;4972724;28;20034;-61
2023/10/06 10:34:57;;;;;;;;;;;;;;;32.68;32.00;102200.50;4973165;28;20122;-61
2023/10/06 10:37:24;;;;;;;5.03;1.52;;;;;;;32.57;32.20;102193.88;4988973;28;19914;-62
2023/10/06 10:39:51;;;;;;;2.88;1.60;;;;;;;32.25;33.23;102189.72;4987913;28;20039;-62
2023/10/06 10:42:21;;;;;;;3.53;1.58;;;;;;;31.87;32.81;102180.94;4989175;28;20414;-62
2023/10/06 10:44:49;;;;;;;3.30;2.20;;;;;;;31.56;33.34;102185.66;4972589;28;20590;-61
2023/10/06 10:47:16;;;;;;;5.03;1.63;;;;;;;31.48;33.65;102177.69;4988565;28;20138;-61
2023/10/06 10:49:44;;;;;;;4.05;1.60;;;;;;;31.29;32.99;102181.53;4971591;28;20523;-62
2023/10/06 10:52:10;;;;;;;6.25;1.90;;;;;;;31.04;33.22;102183.56;4988485;28;20146;-62
2023/10/06 10:54:40;;;;;;;7.65;2.13;;;;;;;30.86;33.61;102183.50;4972377;28;20038;-61
2023/10/06 10:57:09;;;;;;;5.97;1.83;;;;;;;31.04;33.18;102186.31;4988317;28;20042;-61
2023/10/06 11:00:00;;;;;;;6.57;2.00;;;;;;;31.48;32.94;102174.91;4972595;28;20030;-62
2023/10/06 11:02:35;;;;;;;7.40;1.80;;;;;;;31.62;32.45;102168.09;4972570;28;20034;-63
2023/10/06 11:05:04;;;;;;;5.65;2.03;;;;;;;31.66;33.07;102173.97;4972302;28;20494;-63
2023/10/06 11:07:29;;;;;;;4.53;1.58;;;;;;;31.42;33.20;102177.72;4973514;28;20066;-63
2023/10/06 11:09:57;;;;;;;10.10;1.67;;;;;;;31.19;33.11;102172.06;4972145;28;20491;-63
2023/10/06 11:12:24;;;;;;;6.72;1.85;;;;;;;31.07;33.05;102170.06;4987883;28;20093;-66
2023/10/06 11:14:51;;;;;;;4.85;2.00;;;;;;;31.20;33.14;102163.53;4972322;28;20030;-63
2023/10/06 11:17:24;;;;;;;8.85;2.17;;;;;;;31.42;32.75;102170.25;4988474;28;20503;-63
2023/10/06 11:20:00;;;;;;;4.20;1.67;;;;;;;31.81;32.13;102163.31;4985558;28;20034;-63
2023/10/06 11:22:28;;;;;;;4.55;1.75;;;;;;;32.21;31.93;102160.78;4976013;28;20594;-61
2023/10/06 11:24:57;;;;;;;4.93;1.88;;;;;;;32.59;32.54;102149.22;4992199;28;20035;-61
2023/10/06 11:27:23;;;;;;;6.32;1.60;;;;;;;33.01;31.22;102149.84;4976008;28;20035;-61
2023/10/06 11:29:52;;;;;;;5.82;1.92;;;;;;;33.21;31.75;102144.75;4992028;28;20526;-61
2023/10/06 11:32:18;;;;;;;8.82;3.17;;;;;;;33.31;31.80;102147.72;4975810;28;20093;-61
2023/10/06 11:34:45;;;;;;;8.30;2.17;;;;;;;33.41;31.34;102145.16;4975560;28;20039;-61
2023/10/06 11:37:11;;;;;;;6.25;1.73;;;;;;;33.58;31.00;102148.84;4991912;28;20047;-62
2023/10/06 11:39:38;;;;;;;5.43;2.00;;;;;;;33.54;31.43;102139.28;4991870;28;20034;-61
2023/10/06 11:42:22;;;;;;;5.22;2.05;;;;;;;33.47;30.99;102146.94;4975396;28;20110;-62